Time;durP1;ratioP1;P1;durP2;ratioP2;P2;SDS_P1;SDS_P2;PMS_P1;PMS_P2;Temp;Humidity;BMP_temperature;BMP_pressure;BME280_temperature;BME280_humidity;BME280_pressure;Samples;Min_cycle;Max_cycle;Signal;HPM_P1;HPM_P2
2021/08/02 00:01:09;;;;;;;;;;;;;;;-144.99;86.69;52395.09;5093137;28;19912;-82
2021/08/02 00:04:01;;;;;;;;;;;;;;;-144.99;86.85;52395.09;5092702;28;19951;-81
2021/08/02 00:06:31;;;;;;;;;;;;;;;-144.99;86.96;52366.56;5087067;28;19958;-79
2021/08/02 00:09:02;;;;;;;;;;;;;;;-144.99;87.10;52395.09;5088513;28;19924;-84
2021/08/02 00:11:32;;;;;;;;;;;;;;;-144.99;87.33;52431.78;5071234;28;20312;-79
2021/08/02 00:14:00;;;;;;;;;;;;;;;-144.99;87.74;52366.56;5075295;28;19974;-79
2021/08/02 00:16:27;;;;;;;;;;;;;;;-144.99;88.21;52354.34;5067677;28;19936;-79
2021/08/02 00:18:53;;;;;;;;;;;;;;;-144.99;88.26;52370.63;5066806;28;20324;-80
2021/08/02 00:21:20;;;;;;;;;;;;;;;-144.99;88.35;52384.91;5071062;28;19955;-77
2021/08/02 00:23:46;;;;;;;;;;;;;;;-144.99;88.41;52354.34;5068631;28;19925;-83
2021/08/02 00:26:14;;;;;;;;;;;;;;;-144.99;88.84;52374.72;5072339;28;19928;-83
2021/08/02 00:28:41;;;;;;;;;;;;;;;-144.99;88.69;52386.94;5075202;28;19924;-82
2021/08/02 00:31:07;;;;;;;;;;;;;;;-144.99;88.68;52391.03;5059383;28;19924;-82
2021/08/02 00:33:34;;;;;;;;;;;;;;;-144.99;88.72;52407.31;5070024;28;19935;-82
2021/08/02 00:36:04;;;;;;;;;;;;;;;-144.99;88.63;52344.16;5050159;28;19943;-80
2021/08/02 00:38:35;;;;;;;;;;;;;;;-144.99;88.59;52378.78;5068534;28;19924;-82
2021/08/02 00:41:17;;;;;;;;;;;;;;;-144.99;88.77;52386.94;5084942;28;19965;-84
2021/08/02 00:44:01;;;;;;;;;;;;;;;-144.99;88.61;52401.22;5081363;28;19932;-84
2021/08/02 00:46:31;;;;;;;;;;;;;;;-144.99;88.78;52360.44;5045196;28;19932;-81
2021/08/02 00:48:58;;;;;;;;;;;;;;;-144.99;88.62;52395.09;5063144;28;19928;-81
2021/08/02 00:51:25;;;;;;;;;;;;;;;-144.99;88.89;52415.47;5072565;28;19931;-81
2021/08/02 00:53:56;;;;;;;;;;;;;;;-144.99;88.83;52380.84;5064160;28;19936;-78
2021/08/02 00:56:23;;;;;;;;;;;;;;;-144.99;89.08;52391.03;5070474;28;19932;-82
2021/08/02 00:58:50;;;;;;;;;;;;;;;-144.99;89.09;52391.03;5074269;28;19924;-78
2021/08/02 01:01:17;;;;;;;;;;;;;;;-144.99;89.48;52384.91;5074369;28;19932;-78
2021/08/02 01:03:46;;;;;;;;;;;;;;;-144.99;89.45;52419.56;5084964;28;19959;-81
2021/08/02 01:06:12;;;;;;;;;;;;;;;-144.99;89.67;52407.31;5073291;28;19925;-83
2021/08/02 01:08:40;;;;;;;;;;;;;;;-144.99;89.98;52391.03;5068779;28;19924;-83
2021/08/02 01:11:07;;;;;;;;;;;;;;;-144.99;90.27;52391.03;5075245;28;19925;-82
2021/08/02 01:13:36;;;;;;;;;;;;;;;-144.99;90.55;52419.56;5074796;28;20311;-79
2021/08/02 01:16:04;;;;;;;;;;;;;;;-144.99;90.49;52395.09;5070926;28;20327;-79
2021/08/02 01:18:31;;;;;;;;;;;;;;;-144.99;90.57;52364.53;5067561;28;20046;-82
2021/08/02 01:21:02;;;;;;;;;;;;;;;-144.99;90.47;52374.72;5071193;28;19935;-82
2021/08/02 01:23:30;;;;;;;;;;;;;;;-144.99;91.09;52378.78;5072391;28;19924;-82
2021/08/02 01:26:11;;;;;;;;;;;;;;;-144.99;91.89;52413.44;5070634;28;19924;-80
2021/08/02 01:28:56;;;;;;;;;;;;;;;-144.99;92.07;52386.94;5075456;28;19924;-83
2021/08/02 01:31:23;;;;;;;;;;;;;;;-144.99;92.37;52403.25;5076289;28;19929;-83
2021/08/02 01:33:49;;;;;;;;;;;;;;;-144.99;92.82;52415.47;5069081;28;19925;-81
2021/08/02 01:36:16;;;;;;;;;;;;;;;-144.99;93.25;52370.63;5066601;28;19952;-79
2021/08/02 01:38:43;;;;;;;;;;;;;;;-144.99;93.35;52429.75;5070664;28;19931;-79
2021/08/02 01:41:10;;;;;;;;;;;;;;;-144.99;93.42;52403.25;5069954;28;20295;-79
2021/08/02 01:43:36;;;;;;;;;;;;;;;-144.99;93.42;52419.56;5057989;28;19924;-78
2021/08/02 01:46:07;;;;;;;;;;;;;;;-144.99;93.73;52386.94;5070676;28;19936;-79
2021/08/02 01:48:40;;;;;;;;;;;;;;;-144.99;93.65;52384.91;5077417;28;19933;-80
2021/08/02 01:51:10;;;;;;;;;;;;;;;-144.99;93.94;52399.19;5081406;28;19932;-82
2021/08/02 01:53:38;;;;;;;;;;;;;;;-144.99;93.73;52391.03;5074888;28;19932;-77
2021/08/02 01:56:08;;;;;;;;;;;;;;;-144.99;93.83;52395.09;5072936;28;19928;-80
2021/08/02 01:58:40;;;;;;;;;;;;;;;-144.99;93.88;52397.13;5076972;28;19925;-80
2021/08/02 02:01:07;;;;;;;;;;;;;;;-144.99;93.83;52399.19;5072437;28;19929;-81
2021/08/02 02:03:36;;;;;;;;;;;;;;;-144.99;94.30;52403.25;5073120;28;19930;-81
2021/08/02 02:06:05;;;;;;;;;;;;;;;-144.99;94.31;52415.47;5068060;28;19931;-81
2021/08/02 02:08:33;;;;;;;;;;;;;;;-144.99;94.25;52395.09;5081979;28;19924;-81
2021/08/02 02:11:00;;;;;;;;;;;;;;;-144.99;94.56;52399.19;5073922;28;19932;-82
2021/08/02 02:13:30;;;;;;;;;;;;;;;-144.99;94.57;52415.47;5079875;28;19932;-82
2021/08/02 02:15:58;;;;;;;;;;;;;;;-144.99;94.67;52382.88;5076288;28;19956;-80
2021/08/02 02:18:26;;;;;;;;;;;;;;;-144.99;94.72;52407.31;5077159;28;19948;-82
2021/08/02 02:20:53;;;;;;;;;;;;;;;-144.99;95.02;52374.72;5065057;28;20678;-81
2021/08/02 02:23:20;;;;;;;;;;;;;;;-144.99;94.88;52423.63;5075280;28;19931;-82
2021/08/02 02:25:47;;;;;;;;;;;;;;;-144.99;95.06;52360.44;5090761;22;20453;-76
2021/08/02 02:28:14;;;;;;;;;;;;;;;-144.99;94.92;52415.47;5067661;28;19924;-76
2021/08/02 02:30:42;;;;;;;;;;;;;;;-144.99;95.13;52423.63;5070019;28;19939;-78
2021/08/02 02:33:09;;;;;;;;;;;;;;;-144.99;95.27;52395.09;5080424;28;19983;-77
2021/08/02 02:35:40;;;;;;;;;;;;;;;-144.99;95.16;52346.19;5078822;28;19924;-76
2021/08/02 02:38:07;;;;;;;;;;;;;;;-144.99;95.21;52407.31;5071538;28;19925;-78
2021/08/02 02:40:33;;;;;;;;;;;;;;;-144.99;94.98;52366.56;5089940;28;19958;-77
2021/08/02 02:42:59;;;;;;;;;;;;;;;-144.99;95.17;52362.50;5073235;28;19970;-77
2021/08/02 02:45:26;;;;;;;;;;;;;;;-144.99;95.04;52431.78;5088413;28;19961;-77
2021/08/02 02:47:54;;;;;;;;;;;;;;;-144.99;95.06;52382.88;5067815;28;19958;-76
2021/08/02 02:50:21;;;;;;;;;;;;;;;-144.99;95.43;52395.09;5075640;28;19953;-76
2021/08/02 02:52:49;;;;;;;;;;;;;;;-144.99;95.39;52415.47;5069063;28;19939;-77
2021/08/02 02:55:16;;;;;;;;;;;;;;;-144.99;95.40;52403.25;5075391;28;20298;-76
2021/08/02 02:57:42;;;;;;;;;;;;;;;-144.99;95.11;52415.47;5081269;28;20441;-78
2021/08/02 03:00:09;;;;;;;;;;;;;;;-144.99;95.39;52403.25;5081545;28;19924;-76
2021/08/02 03:02:35;;;;;;;;;;;;;;;-144.99;95.42;52401.22;5085086;28;19932;-77
2021/08/02 03:05:05;;;;;;;;;;;;;;;-144.99;95.40;52423.63;5077552;28;19935;-78
2021/08/02 03:07:32;;;;;;;;;;;;;;;-144.99;95.46;52407.31;5070339;28;20372;-77
2021/08/02 03:09:59;;;;;;;;;;;;;;;-144.99;95.28;52413.44;5081009;28;19936;-77
2021/08/02 03:12:25;;;;;;;;;;;;;;;-144.99;95.23;52382.88;5087601;28;19974;-76
2021/08/02 03:14:52;;;;;;;;;;;;;;;-144.99;94.91;52427.72;5089449;28;20335;-77
2021/08/02 03:17:18;;;;;;;;;;;;;;;-144.99;94.87;52407.31;5080473;28;19932;-78
2021/08/02 03:19:44;;;;;;;;;;;;;;;-144.99;94.88;52403.25;5074468;28;19971;-78
2021/08/02 03:22:18;;;;;;;;;;;;;;;-144.99;94.70;52382.88;5067802;28;19932;-78
2021/08/02 03:24:46;;;;;;;;;;;;;;;-144.99;94.74;52399.19;5070500;28;19924;-78
2021/08/02 03:27:18;;;;;;;;;;;;;;;-144.99;94.53;52415.47;5090573;28;20007;-79
2021/08/02 03:29:46;;;;;;;;;;;;;;;-144.99;94.49;52391.03;5075387;28;20368;-77
2021/08/02 03:32:13;;;;;;;;;;;;;;;-144.99;94.14;52391.03;5068987;28;20315;-77
2021/08/02 03:34:40;;;;;;;;;;;;;;;-144.99;93.80;52419.56;5080567;28;19929;-76
2021/08/02 03:37:09;;;;;;;;;;;;;;;-144.99;93.89;52382.88;5075885;28;19955;-77
2021/08/02 03:39:39;;;;;;;;;;;;;;;-144.99;93.54;52366.56;5082512;28;19970;-78
2021/08/02 03:42:05;;;;;;;;;;;;;;;-144.99;93.31;52403.25;5069136;28;19939;-77
2021/08/02 03:44:32;;;;;;;;;;;;;;;-144.99;93.34;52386.94;5085185;28;19928;-77
2021/08/02 03:46:59;;;;;;;;;;;;;;;-144.99;93.16;52370.63;5081859;28;19981;-78
2021/08/02 03:49:25;;;;;;;;;;;;;;;-144.99;92.70;52419.56;5076890;28;19947;-77
2021/08/02 03:51:54;;;;;;;;;;;;;;;-144.99;92.14;52452.16;5072225;28;20340;-74
2021/08/02 03:54:21;;;;;;;;;;;;;;;-144.99;92.04;52407.31;5066499;28;19928;-73
2021/08/02 03:56:49;;;;;;;;;;;;;;;-144.99;91.49;52366.56;5075296;28;19923;-74
2021/08/02 03:59:15;;;;;;;;;;;;;;;-144.99;90.90;52423.63;5071392;28;19925;-74
2021/08/02 04:01:42;;;;;;;;;;;;;;;-144.99;90.90;52384.91;5078288;28;19989;-74
2021/08/02 04:04:09;;;;;;;;;;;;;;;-144.99;91.09;52423.63;5065564;28;19928;-76
2021/08/02 04:06:35;;;;;;;;;;;;;;;-144.99;91.26;52384.91;5076979;28;19931;-76
2021/08/02 04:09:03;;;;;;;;;;;;;;;-144.99;91.39;52386.94;5072719;28;19935;-74
2021/08/02 04:11:29;;;;;;;;;;;;;;;-144.99;91.45;52423.63;5075377;28;20023;-76
2021/08/02 04:13:57;;;;;;;;;;;;;;;-144.99;91.90;52380.84;5070720;28;20408;-74
2021/08/02 04:16:24;;;;;;;;;;;;;;;-144.99;92.00;52378.78;5085765;28;19931;-74
2021/08/02 04:18:50;;;;;;;;;;;;;;;-144.99;91.87;52395.09;5076810;28;19931;-75
2021/08/02 04:21:17;;;;;;;;;;;;;;;-144.99;91.93;52393.06;5071780;28;19928;-75
2021/08/02 04:23:43;;;;;;;;;;;;;;;-144.99;92.21;52407.31;5078722;28;19924;-75
2021/08/02 04:26:12;;;;;;;;;;;;;;;-144.99;91.78;52388.97;5075867;28;20068;-75
2021/08/02 04:28:38;;;;;;;;;;;;;;;-144.99;92.07;52370.63;5073411;28;20015;-74
2021/08/02 04:31:06;;;;;;;;;;;;;;;-144.99;91.61;52388.97;5071292;28;19931;-75
2021/08/02 04:33:32;;;;;;;;;;;;;;;-144.99;91.38;52391.03;5077491;28;19932;-74
2021/08/02 04:35:58;;;;;;;;;;;;;;;-144.99;91.30;52395.09;5063831;28;19932;-75
2021/08/02 04:38:25;;;;;;;;;;;;;;;-144.99;91.40;52366.56;5073280;28;20371;-74
2021/08/02 04:40:51;;;;;;;;;;;;;;;-144.99;91.60;52395.09;5074430;28;20487;-74
2021/08/02 04:43:17;;;;;;;;;;;;;;;-144.99;91.57;52370.63;5077156;28;19930;-74
2021/08/02 04:45:44;;;;;;;;;;;;;;;-144.99;91.54;52366.56;5064902;28;20327;-74
2021/08/02 04:48:11;;;;;;;;;;;;;;;-144.99;91.51;52391.03;5065299;28;19932;-74
2021/08/02 04:50:38;;;;;;;;;;;;;;;-144.99;91.72;52407.31;5077283;28;19925;-74
2021/08/02 04:53:05;;;;;;;;;;;;;;;-144.99;91.94;52395.09;5063964;28;20001;-74
2021/08/02 04:55:31;;;;;;;;;;;;;;;-144.99;91.58;52384.91;5070207;28;19925;-77
2021/08/02 04:57:58;;;;;;;;;;;;;;;-144.99;92.08;52391.03;5071958;28;19951;-74
2021/08/02 05:00:24;;;;;;;;;;;;;;;-144.99;92.60;52374.72;5076700;28;19924;-74
2021/08/02 05:02:50;;;;;;;;;;;;;;;-144.99;92.86;52378.78;5064623;28;19931;-76
2021/08/02 05:05:18;;;;;;;;;;;;;;;-144.99;93.10;52362.50;5067902;28;19988;-76
2021/08/02 05:07:44;;;;;;;;;;;;;;;-144.99;93.92;52333.94;5068619;28;20433;-78
2021/08/02 05:10:11;;;;;;;;;;;;;;;-144.99;94.06;52415.47;5076991;28;19931;-76
2021/08/02 05:12:37;;;;;;;;;;;;;;;-144.99;94.20;52386.94;5063481;28;20167;-76
2021/08/02 05:15:04;;;;;;;;;;;;;;;-144.99;94.66;52378.78;5066302;28;19925;-76
2021/08/02 05:17:31;;;;;;;;;;;;;;;-144.99;94.67;52378.78;5067468;28;20035;-77
2021/08/02 05:19:57;;;;;;;;;;;;;;;-144.99;94.34;52358.41;5069523;28;19924;-76
2021/08/02 05:22:25;;;;;;;;;;;;;;;-144.99;94.34;52407.31;5077256;28;19959;-75
2021/08/02 05:24:51;;;;;;;;;;;;;;;-144.99;94.38;52407.31;5083953;28;19924;-76
2021/08/02 05:27:17;;;;;;;;;;;;;;;-144.99;93.71;52395.09;5081096;28;19935;-77
2021/08/02 05:29:43;;;;;;;;;;;;;;;-144.99;93.68;52370.63;5076478;28;19924;-77
2021/08/02 05:32:10;;;;;;;;;;;;;;;-144.99;93.63;52378.78;5086480;28;20027;-76
2021/08/02 05:34:40;;;;;;;;;;;;;;;-144.99;93.15;52366.56;5073385;28;20716;-74
2021/08/02 05:37:06;;;;;;;;;;;;;;;-144.99;93.21;52338.03;5072051;28;19987;-75
2021/08/02 05:39:34;;;;;;;;;;;;;;;-144.99;93.34;52391.03;5075428;28;19932;-79
2021/08/02 05:42:00;;;;;;;;;;;;;;;-144.99;93.57;52382.88;5081390;28;19928;-78
2021/08/02 05:44:27;;;;;;;;;;;;;;;-144.99;93.18;52350.25;5083085;28;20406;-78
2021/08/02 05:46:53;;;;;;;;;;;;;;;-144.99;92.84;52354.34;5082367;28;19928;-76
2021/08/02 05:49:20;;;;;;;;;;;;;;;-144.99;92.18;52366.56;5073082;28;20332;-75
2021/08/02 05:51:49;;;;;;;;;;;;;;;-144.99;90.86;52386.94;5072499;28;19928;-79
2021/08/02 05:54:15;;;;;;;;;;;;;;;-144.99;89.56;52342.09;5067565;28;20291;-76
2021/08/02 05:56:43;;;;;;;;;;;;;;;-144.99;88.77;52323.75;5075006;28;19928;-74
2021/08/02 05:59:09;;;;;;;;;;;;;;;-144.99;87.44;52342.09;5071835;28;19982;-76
2021/08/02 06:01:35;;;;;;;;;;;;;;;-144.99;87.19;52382.88;5073045;28;19936;-75
2021/08/02 06:04:02;;;;;;;;;;;;;;;-144.99;87.08;52374.72;5075351;28;19931;-74
2021/08/02 06:06:28;;;;;;;;;;;;;;;-144.99;87.07;52301.34;5068568;28;19932;-75
2021/08/02 06:08:54;;;;;;;;;;;;;;;-144.99;87.14;52374.72;5076212;28;19925;-77
2021/08/02 06:11:21;;;;;;;;;;;;;;;-144.99;86.47;52338.03;5076829;28;20387;-76
2021/08/02 06:13:49;;;;;;;;;;;;;;;-144.99;86.15;52362.50;5087740;28;20185;-77
2021/08/02 06:16:20;;;;;;;;;;;;;;;-144.99;85.96;52331.91;5076237;28;19932;-77
2021/08/02 06:18:47;;;;;;;;;;;;;;;-144.99;86.04;52346.19;5076673;28;19946;-77
2021/08/02 06:21:13;;;;;;;;;;;;;;;-144.99;85.57;52364.53;5069198;28;19932;-75
2021/08/02 06:23:39;;;;;;;;;;;;;;;-144.99;85.66;52372.69;5079890;28;19924;-75
2021/08/02 06:26:05;;;;;;;;;;;;;;;-144.99;86.23;52354.34;5071307;28;19935;-76
2021/08/02 06:28:32;;;;;;;;;;;;;;;-144.99;86.59;52378.78;5079036;28;20300;-73
2021/08/02 06:31:01;;;;;;;;;;;;;;;-144.99;86.60;52336.00;5103939;28;19912;-75
2021/08/02 06:33:27;;;;;;;;;;;;;;;-144.99;86.56;52362.50;5096731;28;19955;-77
2021/08/02 06:35:53;;;;;;;;;;;;;;;-144.99;86.32;52331.91;5069616;28;20018;-75
2021/08/02 06:38:19;;;;;;;;;;;;;;;-144.99;86.00;52354.34;5076662;28;19932;-78
2021/08/02 06:40:46;;;;;;;;;;;;;;;-144.99;86.11;52338.03;5085767;28;20379;-79
2021/08/02 06:43:13;;;;;;;;;;;;;;;-144.99;86.52;52364.53;5077193;28;19925;-79
2021/08/02 06:45:40;;;;;;;;;;;;;;;-144.99;86.06;52338.03;5088588;28;19924;-78
2021/08/02 06:48:07;;;;;;;;;;;;;;;-144.99;86.12;52374.72;5079744;28;19924;-78
2021/08/02 06:50:34;;;;;;;;;;;;;;;-144.99;87.82;52325.81;5069881;28;19994;-77
2021/08/02 06:53:00;;;;;;;;;;;;;;;-144.99;88.47;52342.09;5088092;28;19925;-78
2021/08/02 06:55:26;;;;;;;;;;;;;;;-144.99;88.83;52374.72;5074799;28;20319;-79
2021/08/02 06:57:53;;;;;;;;;;;;;;;-144.99;89.13;52350.25;5078797;28;20006;-80
2021/08/02 07:00:19;;;;;;;;;;;;;;;-144.99;91.72;52350.25;5077457;28;19930;-78
2021/08/02 07:02:45;;;;;;;;;;;;;;;-144.99;92.15;52362.50;5069979;28;20315;-79
2021/08/02 07:05:13;;;;;;;;;;;;;;;-144.99;93.34;52354.34;5078073;28;19935;-74
2021/08/02 07:07:39;;;;;;;;;;;;;;;-144.99;94.75;52391.03;5070479;28;19931;-76
2021/08/02 07:10:07;;;;;;;;;;;;;;;-144.99;96.17;52350.25;5080525;28;20294;-76
2021/08/02 07:12:33;;;;;;;;;;;;;;;-144.99;95.33;52415.47;5054335;28;19999;-75
2021/08/02 07:15:00;;;;;;;;;;;;;;;-144.99;96.61;52382.88;5076945;28;20406;-76
2021/08/02 07:17:26;;;;;;;;;;;;;;;-144.99;96.52;52399.19;5078441;28;20025;-74
2021/08/02 07:19:52;;;;;;;;;;;;;;;-144.99;95.78;52366.56;5072189;28;19977;-76
2021/08/02 07:22:20;;;;;;;;;;;;;;;-144.99;96.32;52360.44;5073909;28;19928;-77
2021/08/02 07:24:46;;;;;;;;;;;;;;;-144.99;95.73;52382.88;5075457;28;19951;-76
2021/08/02 07:27:12;;;;;;;;;;;;;;;-144.99;96.29;52378.78;5067129;28;19962;-79
2021/08/02 07:29:39;;;;;;;;;;;;;;;-144.99;95.38;52315.59;5079156;28;19924;-78
2021/08/02 07:32:05;;;;;;;;;;;;;;;-144.99;95.20;52336.00;5090890;28;19928;-76
2021/08/02 07:34:31;;;;;;;;;;;;;;;-144.99;94.97;52325.81;5071296;28;19928;-76
2021/08/02 07:36:58;;;;;;;;;;;;;;;-144.99;93.31;52313.56;5067668;28;19963;-75
2021/08/02 07:39:25;;;;;;;;;;;;;;;-144.99;90.55;52342.09;5076370;28;19932;-75
2021/08/02 07:41:52;;;;;;;;;;;;;;;-144.99;90.18;52278.91;5071260;28;19928;-78
2021/08/02 07:44:18;;;;;;;;;;;;;;;-144.99;88.25;52329.88;5077003;28;19924;-73
2021/08/02 07:46:44;;;;;;;;;;;;;;;-144.99;88.09;52315.59;5081377;28;19924;-77
2021/08/02 07:49:11;;;;;;;;;;;;;;;-144.99;88.32;52313.56;5060779;28;19955;-76
2021/08/02 07:51:37;;;;;;;;;;;;;;;-144.99;87.51;52317.66;5069672;28;19932;-75
2021/08/02 07:54:03;;;;;;;;;;;;;;;-144.99;86.57;52356.38;5064950;28;19928;-77
2021/08/02 07:56:33;;;;;;;;;;;;;;;-144.99;82.66;52297.25;5071905;28;19924;-78
2021/08/02 07:58:59;;;;;;;;;;;;;;;-144.99;83.38;52338.03;5070700;28;22202;-78
2021/08/02 08:01:26;;;;;;;;;;;;;;;-144.99;83.92;52321.72;5068915;28;20206;-79
2021/08/02 08:03:52;;;;;;;;;;;;;;;-144.99;82.35;52297.25;5079111;28;20405;-81
2021/08/02 08:06:19;;;;;;;;;;;;;;;-144.99;82.44;52301.34;5087108;28;19912;-80
2021/08/02 08:08:45;;;;;;;;;;;;;;;-144.99;81.61;52313.56;5080152;28;19935;-78
2021/08/02 08:11:12;;;;;;;;;;;;;;;-144.99;80.00;52313.56;5075608;28;19928;-77
2021/08/02 08:13:40;;;;;;;;;;;;;;;-144.99;79.83;52378.78;5062798;28;19924;-78
2021/08/02 08:16:06;;;;;;;;;;;;;;;-144.99;80.04;52301.34;5070179;28;19924;-77
2021/08/02 08:18:33;;;;;;;;;;;;;;;-144.99;80.54;52313.56;5076805;28;19935;-77
2021/08/02 08:20:59;;;;;;;;;;;;;;;-144.99;79.61;52344.16;5064916;28;19936;-77
2021/08/02 08:23:26;;;;;;;;;;;;;;;-144.99;82.88;52354.34;5070354;28;19930;-75
2021/08/02 08:25:52;;;;;;;;;;;;;;;-144.99;82.53;52338.03;5075599;28;19930;-75
2021/08/02 08:28:19;;;;;;;;;;;;;;;-144.99;84.25;52338.03;5088995;22;20007;-74
2021/08/02 08:30:46;;;;;;;;;;;;;;;-144.99;85.19;52338.03;5053189;28;19959;-74
2021/08/02 08:33:13;;;;;;;;;;;;;;;-144.99;85.31;52338.03;5065286;28;20288;-77
2021/08/02 08:35:39;;;;;;;;;;;;;;;-144.99;85.21;52329.88;5061814;28;20348;-76
2021/08/02 08:38:06;;;;;;;;;;;;;;;-144.99;84.71;52350.25;5063211;28;19958;-73
2021/08/02 08:40:33;;;;;;;;;;;;;;;-144.99;84.12;52358.41;5059774;28;19932;-77
2021/08/02 08:42:59;;;;;;;;;;;;;;;-144.99;83.31;52303.38;5060977;28;19963;-77
2021/08/02 08:45:26;;;;;;;;;;;;;;;-144.99;83.08;52348.22;5061409;28;19941;-75
2021/08/02 08:47:56;;;;;;;;;;;;;;;-144.99;83.31;52342.09;5060030;28;19943;-76
2021/08/02 08:50:23;;;;;;;;;;;;;;;-144.99;83.25;52338.03;5059472;28;20008;-75
2021/08/02 08:52:50;;;;;;;;;;;;;;;-144.99;83.34;52354.34;5059835;28;20410;-76
2021/08/02 08:55:16;;;;;;;;;;;;;;;-144.99;83.61;52358.41;5056301;28;19936;-76
2021/08/02 08:57:43;;;;;;;;;;;;;;;-144.99;84.29;52364.53;5061036;28;19982;-77
2021/08/02 09:00:18;;;;;;;;;;;;;;;-144.99;85.00;52342.09;5063340;28;20314;-76
2021/08/02 09:02:45;;;;;;;;;;;;;;;-144.99;86.32;52366.56;5068239;28;19991;-76
2021/08/02 09:05:12;;;;;;;;;;;;;;;-144.99;87.12;52333.94;5069245;28;19966;-76
2021/08/02 09:07:40;;;;;;;;;;;;;;;-144.99;87.17;52333.94;5067297;28;19944;-74
2021/08/02 09:10:08;;;;;;;;;;;;;;;-144.99;86.60;52293.19;5068856;28;20314;-77
2021/08/02 09:12:34;;;;;;;;;;;;;;;-144.99;85.56;52317.66;5068058;28;20034;-76
2021/08/02 09:15:03;;;;;;;;;;;;;;;-144.99;84.29;52317.66;5069659;28;19936;-76
2021/08/02 09:17:30;;;;;;;;;;;;;;;-144.99;80.87;52317.66;5068616;28;20376;-78
2021/08/02 09:19:56;;;;;;;;;;;;;;;-144.99;77.33;52289.13;5063853;28;21163;-77
2021/08/02 09:22:28;;;;;;;;;;;;;;;-144.99;76.83;52305.41;5062990;28;19928;-76
2021/08/02 09:25:04;;;;;;;;;;;;;;;-144.99;72.76;52321.72;5069362;28;20064;-77
2021/08/02 09:27:31;;;;;;;;;;;;;;;-144.99;73.50;52325.81;5069140;28;20063;-76
2021/08/02 09:29:58;;;;;;;;;;;;;;;-144.99;76.08;52321.72;5068708;28;20005;-77
2021/08/02 09:32:24;;;;;;;;;;;;;;;-144.99;79.76;52313.56;5068759;28;19957;-76
2021/08/02 09:34:51;;;;;;;;;;;;;;;-144.99;78.93;52317.66;5070182;28;19925;-76
2021/08/02 09:37:20;;;;;;;;;;;;;;;-144.99;79.02;52336.00;5055086;28;19974;-76
2021/08/02 09:39:48;;;;;;;;;;;;;;;-144.99;78.49;52333.94;5061883;28;19995;-73
2021/08/02 09:42:14;;;;;;;;;;;;;;;-144.99;79.39;52305.41;5061448;28;20349;-77
2021/08/02 09:44:41;;;;;;;;;;;;;;;-144.99;77.36;52309.50;5065883;28;20307;-78
2021/08/02 09:47:08;;;;;;;;;;;;;;;-144.99;74.34;52289.13;5069605;28;19924;-77
2021/08/02 09:49:44;;;;;;;;;;;;;;;-144.99;73.30;52321.72;5069565;28;19951;-79
2021/08/02 09:52:11;;;;;;;;;;;;;;;-144.99;74.53;52297.25;5067987;28;20005;-75
2021/08/02 09:54:37;;;;;;;;;;;;;;;-144.99;74.68;52309.50;5069825;28;19996;-77
2021/08/02 09:57:06;;;;;;;;;;;;;;;-144.99;74.82;52323.75;5069691;28;19966;-77
2021/08/02 09:59:34;;;;;;;;;;;;;;;-144.99;75.49;52317.66;5056931;28;20667;-77
2021/08/02 10:02:00;;;;;;;;;;;;;;;-144.99;75.15;52319.69;5061890;28;19981;-77
2021/08/02 10:04:27;;;;;;;;;;;;;;;-144.99;76.05;52293.19;5055263;28;19948;-78
2021/08/02 10:06:53;;;;;;;;;;;;;;;-144.99;76.22;52299.31;5064742;28;20377;-73
2021/08/02 10:09:20;;;;;;;;;;;;;;;-144.99;75.51;52297.25;5064572;28;20456;-76
2021/08/02 10:11:46;;;;;;;;;;;;;;;-144.99;79.01;52352.28;5068224;28;19966;-76
2021/08/02 10:14:14;;;;;;;;;;;;;;;-144.99;79.47;52378.78;5068917;28;20073;-77
2021/08/02 10:16:43;;;;;;;;;;;;;;;-144.99;80.68;52329.88;5066039;28;19941;-76
2021/08/02 10:19:09;;;;;;;;;;;;;;;-144.99;83.01;52423.63;5065633;28;19965;-75
2021/08/02 10:21:37;;;;;;;;;;;;;;;-144.99;85.25;52338.03;5065949;28;19997;-76
2021/08/02 10:24:05;;;;;;;;;;;;;;;-144.99;85.33;52386.94;5066411;28;19994;-77
2021/08/02 10:26:31;;;;;;;;;;;;;;;-144.99;85.86;52360.44;5065131;28;19925;-76
2021/08/02 10:28:58;;;;;;;;;;;;;;;-144.99;86.84;52378.78;5063350;28;19961;-77
2021/08/02 10:31:27;;;;;;;;;;;;;;;-144.99;86.38;52342.09;5067238;28;19948;-77
2021/08/02 10:33:54;;;;;;;;;;;;;;;-144.99;85.50;52362.50;5057035;28;19941;-77
2021/08/02 10:36:21;;;;;;;;;;;;;;;-144.99;85.07;52368.59;5063351;28;19946;-77
2021/08/02 10:38:48;;;;;;;;;;;;;;;-144.99;83.68;52336.00;5057784;28;19925;-77
2021/08/02 10:41:23;;;;;;;;;;;;;;;-144.99;83.47;52321.72;5066923;28;19958;-74
2021/08/02 10:43:50;;;;;;;;;;;;;;;-144.99;83.15;52295.22;5067872;28;19964;-77
2021/08/02 10:46:17;;;;;;;;;;;;;;;-144.99;82.95;52366.56;5064530;28;20440;-77
2021/08/02 10:48:46;;;;;;;;;;;;;;;-144.99;82.33;52313.56;5064161;28;19970;-75
2021/08/02 10:51:13;;;;;;;;;;;;;;;-144.99;81.63;52338.03;5057708;28;19972;-77
2021/08/02 10:53:39;;;;;;;;;;;;;;;-144.99;80.14;52289.13;5062559;28;19949;-77
2021/08/02 10:56:06;;;;;;;;;;;;;;;-144.99;80.12;52321.72;5064421;28;19925;-77
2021/08/02 10:58:34;;;;;;;;;;;;;;;-144.99;78.97;52315.59;5064457;28;19971;-77
2021/08/02 11:01:01;;;;;;;;;;;;;;;-144.99;79.93;52313.56;5055532;28;20020;-78
2021/08/02 11:03:30;;;;;;;;;;;;;;;-144.99;79.69;52293.19;5061422;28;19962;-75
2021/08/02 11:05:57;;;;;;;;;;;;;;;-144.99;79.04;52295.22;5055087;28;19950;-75
2021/08/02 11:08:24;;;;;;;;;;;;;;;-144.99;77.94;52305.41;5064250;28;19970;-75
2021/08/02 11:10:50;;;;;;;;;;;;;;;-144.99;77.69;52289.13;5064973;28;20364;-76
2021/08/02 11:13:24;;;;;;;;;;;;;;;-144.99;75.70;52338.03;5063924;28;19961;-75
2021/08/02 11:15:50;;;;;;;;;;;;;;;-144.99;75.33;52280.97;5060933;28;19965;-75
2021/08/02 11:18:23;;;;;;;;;;;;;;;-144.99;74.41;52280.97;5065574;28;19970;-75
2021/08/02 11:20:49;;;;;;;;;;;;;;;-144.99;74.16;52256.50;5055717;28;19942;-76
2021/08/02 11:23:17;;;;;;;;;;;;;;;-144.99;71.60;52240.19;5060567;28;19979;-76
2021/08/02 11:25:43;;;;;;;;;;;;;;;-144.99;71.22;52329.88;5058006;28;19932;-76
2021/08/02 11:28:09;;;;;;;;;;;;;;;-144.99;72.93;52317.66;5059027;28;20089;-74
2021/08/02 11:30:36;;;;;;;;;;;;;;;-144.99;75.06;52321.72;5057838;28;19933;-74
2021/08/02 11:33:02;;;;;;;;;;;;;;;-144.99;75.89;52299.31;5063381;28;20005;-76
2021/08/02 11:35:34;;;;;;;;;;;;;;;-144.99;76.87;52342.09;5064162;28;19929;-75
2021/08/02 11:38:00;;;;;;;;;;;;;;;-144.99;76.51;52331.91;5063258;28;20024;-76
2021/08/02 11:40:33;;;;;;;;;;;;;;;-144.99;77.18;52336.00;5054218;28;19928;-73
2021/08/02 11:43:01;;;;;;;;;;;;;;;-144.99;77.90;52342.09;5061441;28;19972;-74
2021/08/02 11:45:28;;;;;;;;;;;;;;;-144.99;77.70;52321.72;5058452;28;19954;-78
2021/08/02 11:47:55;;;;;;;;;;;;;;;-144.99;77.39;52289.13;5058874;28;20053;-74
2021/08/02 11:50:21;;;;;;;;;;;;;;;-144.99;77.89;52352.28;5059492;28;20572;-77
2021/08/02 11:52:56;;;;;;;;;;;;;;;-144.99;77.46;52313.56;5058428;28;20449;-75
2021/08/02 11:55:23;;;;;;;;;;;;;;;-144.99;77.47;52346.19;5059255;28;19967;-75
2021/08/02 11:57:58;;;;;;;;;;;;;;;-144.99;76.60;52305.41;5061113;28;21281;-78
2021/08/02 12:00:24;;;;;;;;;;;;;;;-144.99;77.32;52360.44;5057097;28;20463;-76
2021/08/02 12:02:51;;;;;;;;;;;;;;;-144.99;77.28;52370.63;5055829;28;19959;-77
2021/08/02 12:05:22;;;;;;;;;;;;;;;-144.99;77.24;52309.50;5061188;28;19924;-78
2021/08/02 12:07:48;;;;;;;;;;;;;;;-144.99;77.69;52333.94;5056393;28;19932;-77
2021/08/02 12:10:16;;;;;;;;;;;;;;;-144.99;77.76;52358.41;5058399;28;19924;-75
2021/08/02 12:12:44;;;;;;;;;;;;;;;-144.99;77.44;52346.19;5058668;28;19936;-77
2021/08/02 12:15:12;;;;;;;;;;;;;;;-144.99;76.73;52244.28;5060485;28;19932;-74
2021/08/02 12:17:48;;;;;;;;;;;;;;;-144.99;76.65;52313.56;5059724;28;19965;-77
2021/08/02 12:20:14;;;;;;;;;;;;;;;-144.99;75.15;52276.88;5060543;28;19925;-74
2021/08/02 12:22:40;;;;;;;;;;;;;;;-144.99;73.61;52305.41;5056303;28;20035;-77
2021/08/02 12:25:07;;;;;;;;;;;;;;;-144.99;72.41;52299.31;5059402;28;19996;-76
2021/08/02 12:27:34;;;;;;;;;;;;;;;-144.99;71.49;52293.19;5061964;28;19979;-77
2021/08/02 12:30:03;;;;;;;;;;;;;;;-144.99;71.62;52291.16;5061149;28;19931;-76